Airfield :
LOGIN :

Register | Disclaimer

   EN    FR    IT 

 










Legend :    VFR   Marginal VFR   IFR   Intensive IFR   Very Intensive IFR
Visi :
Ceiling :
>= 8 km
>= 3000ft
5 to 8 km
1000 to 3000 ft
1500m to 5 km
500 to 1000 ft
800 to 1500m
200 to 500 ft
< 800m
< 200 ft
Symbols :   Thunderstorms  Fog  Heavy snow  Heavy precipitations  Wind > 20 kt
SIGMETs :     Misc.  Thunderstorms  Icing  Turbulence  Mountain Waves  Volcanic Ashes







- Airport Elevation : 1234 ft
- IATA code : LUX


ELLX - Luxembourg Findel

CURRENT METAR :
  • 251220Z 27009KT 230V300 9999 FEW045 07/M04 Q1010 NOSIG

EXPIRED METARs :
  • 251150Z 29009KT 250V340 9999 FEW039 BKN067 07/M05 Q1010 NOSIG
  • 251120Z 28009KT 260V320 9999 FEW032 BKN065 07/M03 Q1010 NOSIG
  • 251050Z 28008KT 250V320 9999 FEW028 BKN066 06/M02 Q1010 NOSIG
  • 251020Z 29008KT 260V330 9999 FEW025 BKN060 06/M02 Q1010 NOSIG
  • 250950Z 30009KT 270V330 9999 FEW018 BKN056 05/M00 Q1009 NOSIG
  • 250920Z 30010KT 270V330 9999 FEW018 BKN052 05/M00 Q1009 NOSIG

TAF TAF ELLX
Valid from the 25 at 12:00 until the 26 at 18:00 UTC


251100Z 2512/2618 34008KT 9999 FEW030 BKN040
PROB40
TEMPO 2512/2517 34010G20KT
TEMPO 2611/2618 SCT025TCU
ATIS : +352 4798 27300
Met : +352 4798 27010 / 27050
No reported NOTAMs for that airfield.



MET'MAP, your aeronautical weather chart ! - Copyright ORBIFLY December 2007 - Disclaimer

ORBIFLY MET'MAP TEAM :

Programming & Development : Alexandra Zaïnal
Concept & Development : Baudouin d'Aumeries
Co-Development & Prog : Marc-Olivier Méhu
Technical & hardware support : Manuel Goepfert

Contact : metmap@orbifly.com




SOURCES & CREDITS :

   NOAA